sensor_id;sensor_type;location;lat;lon;timestamp;pressure;altitude;pressure_sealevel;temperature;humidity
67377;BME280;54261;46.086;6.588;2023-07-20T00:02:34;92604.84;;;18.87;33.14
67377;BME280;54261;46.086;6.588;2023-07-20T00:07:36;92603.16;;;18.52;33.70
67377;BME280;54261;46.086;6.588;2023-07-20T00:12:38;92591.38;;;18.41;33.67
67377;BME280;54261;46.086;6.588;2023-07-20T00:17:40;92519.69;;;17.99;33.57
67377;BME280;54261;46.086;6.588;2023-07-20T00:22:42;92600.44;;;18.52;33.71
67377;BME280;54261;46.086;6.588;2023-07-20T00:27:44;92608.69;;;18.32;33.81
67377;BME280;54261;46.086;6.588;2023-07-20T00:32:46;92598.28;;;18.38;33.88
67377;BME280;54261;46.086;6.588;2023-07-20T00:37:48;92602.19;;;18.64;33.72
67377;BME280;54261;46.086;6.588;2023-07-20T00:42:50;92583.09;;;18.60;33.62
67377;BME280;54261;46.086;6.588;2023-07-20T00:47:57;92598.88;;;18.78;33.40
67377;BME280;54261;46.086;6.588;2023-07-20T00:53:00;92578.13;;;18.66;33.54
67377;BME280;54261;46.086;6.588;2023-07-20T00:58:04;92598.16;;;18.54;33.92
67377;BME280;54261;46.086;6.588;2023-07-20T01:03:09;92596.13;;;18.47;33.67
67377;BME280;54261;46.086;6.588;2023-07-20T01:08:24;92584.34;;;18.67;33.70
67377;BME280;54261;46.086;6.588;2023-07-20T01:13:30;92562.97;;;18.65;33.47
67377;BME280;54261;46.086;6.588;2023-07-20T01:18:32;92593.13;;;18.83;33.48
67377;BME280;54261;46.086;6.588;2023-07-20T01:29:17;92570.44;;;18.72;33.65
67377;BME280;54261;46.086;6.588;2023-07-20T01:34:23;92569.50;;;18.60;33.61
67377;BME280;54261;46.086;6.588;2023-07-20T01:39:26;92562.50;;;18.59;33.63
67377;BME280;54261;46.086;6.588;2023-07-20T01:44:28;92571.91;;;18.66;33.47
67377;BME280;54261;46.086;6.588;2023-07-20T01:49:31;92556.75;;;18.65;33.55
67377;BME280;54261;46.086;6.588;2023-07-20T01:54:33;92558.53;;;18.53;33.65
67377;BME280;54261;46.086;6.588;2023-07-20T01:59:35;92570.25;;;18.57;33.55
67377;BME280;54261;46.086;6.588;2023-07-20T02:04:37;92535.03;;;18.38;33.86
67377;BME280;54261;46.086;6.588;2023-07-20T02:09:39;92563.88;;;18.19;34.21
67377;BME280;54261;46.086;6.588;2023-07-20T02:14:42;92578.84;;;18.13;34.42
67377;BME280;54261;46.086;6.588;2023-07-20T02:19:44;92494.09;;;17.49;34.72
67377;BME280;54261;46.086;6.588;2023-07-20T02:24:45;92569.41;;;17.80;34.78
67377;BME280;54261;46.086;6.588;2023-07-20T02:29:47;92575.25;;;17.82;35.00
67377;BME280;54261;46.086;6.588;2023-07-20T02:34:49;92576.75;;;17.79;35.01
67377;BME280;54261;46.086;6.588;2023-07-20T02:39:51;92559.69;;;17.78;34.84
67377;BME280;54261;46.086;6.588;2023-07-20T02:44:53;92563.84;;;17.96;34.58
67377;BME280;54261;46.086;6.588;2023-07-20T02:49:55;92551.38;;;17.91;34.53
67377;BME280;54261;46.086;6.588;2023-07-20T02:54:56;92573.72;;;18.08;34.42
67377;BME280;54261;46.086;6.588;2023-07-20T02:59:58;92575.91;;;17.98;34.41
67377;BME280;54261;46.086;6.588;2023-07-20T03:05:01;92574.88;;;18.06;34.34
67377;BME280;54261;46.086;6.588;2023-07-20T03:10:05;92553.66;;;17.89;34.11
67377;BME280;54261;46.086;6.588;2023-07-20T03:15:10;92545.31;;;17.55;34.62
67377;BME280;54261;46.086;6.588;2023-07-20T03:20:13;92567.53;;;17.84;34.69
67377;BME280;54261;46.086;6.588;2023-07-20T03:25:15;92554.31;;;17.39;35.28
67377;BME280;54261;46.086;6.588;2023-07-20T03:30:17;92579.22;;;17.45;35.52
67377;BME280;54261;46.086;6.588;2023-07-20T03:35:19;92574.66;;;17.10;35.62
67377;BME280;54261;46.086;6.588;2023-07-20T03:40:20;92569.97;;;17.26;35.96
67377;BME280;54261;46.086;6.588;2023-07-20T03:45:22;92560.13;;;17.18;36.04
67377;BME280;54261;46.086;6.588;2023-07-20T03:50:25;92561.97;;;17.33;36.15
67377;BME280;54261;46.086;6.588;2023-07-20T03:55:27;92566.19;;;17.50;35.62
67377;BME280;54261;46.086;6.588;2023-07-20T04:00:29;92563.97;;;17.56;35.61
67377;BME280;54261;46.086;6.588;2023-07-20T04:05:31;92566.88;;;17.47;35.84
67377;BME280;54261;46.086;6.588;2023-07-20T04:10:33;92548.06;;;17.35;35.87
67377;BME280;54261;46.086;6.588;2023-07-20T04:15:35;92563.66;;;17.22;36.22
67377;BME280;54261;46.086;6.588;2023-07-20T04:20:37;92565.19;;;17.00;36.57
67377;BME280;54261;46.086;6.588;2023-07-20T04:25:39;92561.88;;;17.30;36.38
67377;BME280;54261;46.086;6.588;2023-07-20T04:30:43;92536.97;;;17.24;36.13
67377;BME280;54261;46.086;6.588;2023-07-20T04:35:52;92562.59;;;17.46;36.26
67377;BME280;54261;46.086;6.588;2023-07-20T04:41:03;92562.03;;;17.37;36.45
67377;BME280;54261;46.086;6.588;2023-07-20T04:46:10;92553.47;;;17.35;36.34
67377;BME280;54261;46.086;6.588;2023-07-20T04:51:13;92553.81;;;17.33;36.50
67377;BME280;54261;46.086;6.588;2023-07-20T04:56:15;92559.31;;;17.57;36.21
67377;BME280;54261;46.086;6.588;2023-07-20T05:01:17;92553.88;;;17.57;36.25
67377;BME280;54261;46.086;6.588;2023-07-20T05:06:19;92548.75;;;17.52;36.47
67377;BME280;54261;46.086;6.588;2023-07-20T05:11:22;92541.09;;;17.38;36.32
67377;BME280;54261;46.086;6.588;2023-07-20T05:16:25;92478.44;;;17.00;36.57
67377;BME280;54261;46.086;6.588;2023-07-20T05:21:28;92563.03;;;17.48;37.10
67377;BME280;54261;46.086;6.588;2023-07-20T05:26:30;92563.66;;;17.42;37.28
67377;BME280;54261;46.086;6.588;2023-07-20T05:31:32;92559.78;;;17.62;36.99
67377;BME280;54261;46.086;6.588;2023-07-20T05:36:34;92537.66;;;17.84;37.06
67377;BME280;54261;46.086;6.588;2023-07-20T05:41:36;92537.28;;;18.09;36.50
67377;BME280;54261;46.086;6.588;2023-07-20T05:46:38;92545.38;;;18.05;36.56
67377;BME280;54261;46.086;6.588;2023-07-20T05:51:58;92540.94;;;17.93;37.12
67377;BME280;54261;46.086;6.588;2023-07-20T05:56:59;92543.28;;;17.95;36.95
67377;BME280;54261;46.086;6.588;2023-07-20T06:02:01;92531.69;;;17.98;36.93
67377;BME280;54261;46.086;6.588;2023-07-20T06:07:03;92537.94;;;18.25;37.24
67377;BME280;54261;46.086;6.588;2023-07-20T06:12:06;92550.63;;;18.41;36.76
67377;BME280;54261;46.086;6.588;2023-07-20T06:17:08;92533.38;;;18.56;36.31
67377;BME280;54261;46.086;6.588;2023-07-20T06:22:09;92536.75;;;18.76;36.65
67377;BME280;54261;46.086;6.588;2023-07-20T06:27:11;92548.31;;;19.00;36.23
67377;BME280;54261;46.086;6.588;2023-07-20T06:32:13;92525.78;;;19.00;36.74
67377;BME280;54261;46.086;6.588;2023-07-20T06:37:15;92508.03;;;19.10;36.42
67377;BME280;54261;46.086;6.588;2023-07-20T06:42:17;92533.94;;;19.34;36.16
67377;BME280;54261;46.086;6.588;2023-07-20T06:47:19;92515.28;;;19.32;35.87
67377;BME280;54261;46.086;6.588;2023-07-20T06:52:21;92523.94;;;19.45;35.55
67377;BME280;54261;46.086;6.588;2023-07-20T06:57:23;92508.00;;;19.44;35.17
67377;BME280;54261;46.086;6.588;2023-07-20T07:02:25;92526.78;;;19.53;35.39
67377;BME280;54261;46.086;6.588;2023-07-20T07:07:27;92514.56;;;19.39;35.83
67377;BME280;54261;46.086;6.588;2023-07-20T07:12:29;92505.25;;;19.40;36.04
67377;BME280;54261;46.086;6.588;2023-07-20T07:17:30;92500.00;;;19.58;36.36
67377;BME280;54261;46.086;6.588;2023-07-20T07:22:35;92514.63;;;19.88;35.92
67377;BME280;54261;46.086;6.588;2023-07-20T07:27:37;92509.38;;;20.10;35.76
67377;BME280;54261;46.086;6.588;2023-07-20T07:32:39;92503.50;;;20.04;35.25
67377;BME280;54261;46.086;6.588;2023-07-20T07:37:44;92513.13;;;19.91;36.08
67377;BME280;54261;46.086;6.588;2023-07-20T07:43:07;92509.50;;;19.79;36.57
67377;BME280;54261;46.086;6.588;2023-07-20T07:48:11;92508.97;;;20.08;35.81
67377;BME280;54261;46.086;6.588;2023-07-20T07:53:14;92508.34;;;18.74;36.66
67377;BME280;54261;46.086;6.588;2023-07-20T07:58:16;92481.22;;;17.93;38.54
67377;BME280;54261;46.086;6.588;2023-07-20T08:03:19;92503.44;;;18.53;37.43
67377;BME280;54261;46.086;6.588;2023-07-20T08:08:22;92491.25;;;19.38;36.17
67377;BME280;54261;46.086;6.588;2023-07-20T08:13:25;92460.28;;;19.12;36.00
67377;BME280;54261;46.086;6.588;2023-07-20T08:18:27;92494.97;;;18.88;35.86
67377;BME280;54261;46.086;6.588;2023-07-20T08:23:29;92351.56;;;16.82;38.41
67377;BME280;54261;46.086;6.588;2023-07-20T08:28:31;92484.75;;;17.97;38.53
67377;BME280;54261;46.086;6.588;2023-07-20T08:33:33;92478.25;;;18.86;37.22
67377;BME280;54261;46.086;6.588;2023-07-20T08:38:35;92490.06;;;19.77;35.00
67377;BME280;54261;46.086;6.588;2023-07-20T08:43:40;92489.63;;;19.71;35.38
67377;BME280;54261;46.086;6.588;2023-07-20T08:48:44;92488.47;;;20.21;33.99
67377;BME280;54261;46.086;6.588;2023-07-20T08:53:47;92443.06;;;20.43;34.08
67377;BME280;54261;46.086;6.588;2023-07-20T08:58:49;92471.44;;;21.24;33.39
67377;BME280;54261;46.086;6.588;2023-07-20T09:03:53;92468.81;;;20.57;32.75
67377;BME280;54261;46.086;6.588;2023-07-20T09:08:55;92431.88;;;19.96;33.69
67377;BME280;54261;46.086;6.588;2023-07-20T09:14:06;92437.69;;;19.46;34.49
67377;BME280;54261;46.086;6.588;2023-07-20T09:19:09;92425.50;;;18.95;35.52
67377;BME280;54261;46.086;6.588;2023-07-20T09:24:11;92436.84;;;19.38;35.29
67377;BME280;54261;46.086;6.588;2023-07-20T09:29:13;92433.25;;;20.24;32.75
67377;BME280;54261;46.086;6.588;2023-07-20T09:34:17;92420.16;;;19.88;34.45
67377;BME280;54261;46.086;6.588;2023-07-20T09:39:23;92428.88;;;20.83;33.36
67377;BME280;54261;46.086;6.588;2023-07-20T09:44:28;92423.84;;;19.21;35.29
67377;BME280;54261;46.086;6.588;2023-07-20T09:49:39;92414.97;;;20.32;33.59
67377;BME280;54261;46.086;6.588;2023-07-20T09:54:44;92411.81;;;21.19;32.37
67377;BME280;54261;46.086;6.588;2023-07-20T09:59:48;92408.69;;;21.13;32.58
67377;BME280;54261;46.086;6.588;2023-07-20T10:04:52;92404.72;;;20.89;32.53
67377;BME280;54261;46.086;6.588;2023-07-20T10:09:56;92408.72;;;21.53;31.11
67377;BME280;54261;46.086;6.588;2023-07-20T10:15:10;92400.91;;;21.19;32.38
67377;BME280;54261;46.086;6.588;2023-07-20T10:20:12;92390.66;;;19.98;33.40
67377;BME280;54261;46.086;6.588;2023-07-20T10:25:16;92399.69;;;21.05;31.76
67377;BME280;54261;46.086;6.588;2023-07-20T10:30:21;92390.97;;;20.56;32.63
67377;BME280;54261;46.086;6.588;2023-07-20T10:35:23;92370.06;;;20.82;32.46
67377;BME280;54261;46.086;6.588;2023-07-20T10:40:34;92380.28;;;21.43;33.13
67377;BME280;54261;46.086;6.588;2023-07-20T10:45:44;92362.69;;;21.08;32.40
67377;BME280;54261;46.086;6.588;2023-07-20T10:56:13;92372.25;;;20.54;32.72
67377;BME280;54261;46.086;6.588;2023-07-20T11:01:16;92357.63;;;20.03;34.58
67377;BME280;54261;46.086;6.588;2023-07-20T11:06:30;92354.16;;;21.60;32.07
67377;BME280;54261;46.086;6.588;2023-07-20T11:11:34;92333.84;;;21.39;32.84
67377;BME280;54261;46.086;6.588;2023-07-20T11:16:41;92343.16;;;23.00;30.21
67377;BME280;54261;46.086;6.588;2023-07-20T11:39:44;92321.97;;;19.63;35.19
67377;BME280;54261;46.086;6.588;2023-07-20T11:44:51;92303.78;;;21.90;31.69
67377;BME280;54261;46.086;6.588;2023-07-20T11:49:54;92299.00;;;22.27;30.68
67377;BME280;54261;46.086;6.588;2023-07-20T11:54:56;92301.56;;;22.71;30.50
67377;BME280;54261;46.086;6.588;2023-07-20T12:00:03;92288.16;;;24.20;28.42
67377;BME280;54261;46.086;6.588;2023-07-20T12:05:11;92271.22;;;22.43;29.77
67377;BME280;54261;46.086;6.588;2023-07-20T12:10:13;92267.31;;;22.40;30.57
67377;BME280;54261;46.086;6.588;2023-07-20T12:20:27;92263.00;;;23.56;29.30
67377;BME280;54261;46.086;6.588;2023-07-20T12:25:43;92258.13;;;23.78;28.08
67377;BME280;54261;46.086;6.588;2023-07-20T12:30:46;92264.81;;;23.74;29.42
67377;BME280;54261;46.086;6.588;2023-07-20T12:35:49;92245.63;;;23.74;27.88
67377;BME280;54261;46.086;6.588;2023-07-20T12:40:51;92255.97;;;23.97;27.66
67377;BME280;54261;46.086;6.588;2023-07-20T12:45:53;92258.44;;;23.42;28.96
67377;BME280;54261;46.086;6.588;2023-07-20T12:50:55;92250.41;;;23.66;27.82
67377;BME280;54261;46.086;6.588;2023-07-20T12:55:56;92244.28;;;23.51;28.36
67377;BME280;54261;46.086;6.588;2023-07-20T13:00:58;92254.78;;;23.98;27.48
67377;BME280;54261;46.086;6.588;2023-07-20T13:06:02;92212.69;;;23.43;28.05
67377;BME280;54261;46.086;6.588;2023-07-20T13:11:07;92238.50;;;24.49;27.51
67377;BME280;54261;46.086;6.588;2023-07-20T13:16:09;92135.69;;;23.41;27.50
67377;BME280;54261;46.086;6.588;2023-07-20T13:21:11;92244.66;;;23.91;27.09
67377;BME280;54261;46.086;6.588;2023-07-20T13:26:15;92234.78;;;24.01;27.29
67377;BME280;54261;46.086;6.588;2023-07-20T13:31:17;92228.50;;;24.35;27.61
67377;BME280;54261;46.086;6.588;2023-07-20T13:36:19;92189.03;;;23.98;27.23
67377;BME280;54261;46.086;6.588;2023-07-20T13:41:23;92224.28;;;25.33;26.48
67377;BME280;54261;46.086;6.588;2023-07-20T13:46:26;92213.75;;;25.76;26.17
67377;BME280;54261;46.086;6.588;2023-07-20T13:51:30;92208.06;;;25.19;26.65
67377;BME280;54261;46.086;6.588;2023-07-20T13:56:33;92193.06;;;25.91;25.29
67377;BME280;54261;46.086;6.588;2023-07-20T14:01:35;92192.16;;;26.18;24.80
67377;BME280;54261;46.086;6.588;2023-07-20T14:06:39;92190.19;;;26.89;25.11
67377;BME280;54261;46.086;6.588;2023-07-20T14:11:41;92181.72;;;26.46;24.78
67377;BME280;54261;46.086;6.588;2023-07-20T14:16:46;92177.22;;;25.99;25.00
67377;BME280;54261;46.086;6.588;2023-07-20T14:21:48;92168.97;;;27.23;23.29
67377;BME280;54261;46.086;6.588;2023-07-20T14:26:50;92129.91;;;26.95;23.06
67377;BME280;54261;46.086;6.588;2023-07-20T14:31:53;92177.09;;;27.72;22.36
67377;BME280;54261;46.086;6.588;2023-07-20T14:36:59;92174.00;;;27.41;22.22
67377;BME280;54261;46.086;6.588;2023-07-20T14:42:01;92175.41;;;28.86;21.79
67377;BME280;54261;46.086;6.588;2023-07-20T14:47:05;92149.78;;;30.04;21.08
67377;BME280;54261;46.086;6.588;2023-07-20T14:52:15;92178.94;;;30.28;19.76
67377;BME280;54261;46.086;6.588;2023-07-20T14:57:17;92155.22;;;29.95;19.30
67377;BME280;54261;46.086;6.588;2023-07-20T15:02:20;92150.09;;;31.20;18.36
67377;BME280;54261;46.086;6.588;2023-07-20T15:07:22;92155.63;;;30.38;19.02
67377;BME280;54261;46.086;6.588;2023-07-20T15:12:24;92173.94;;;31.08;18.56
67377;BME280;54261;46.086;6.588;2023-07-20T15:17:26;92165.97;;;31.47;18.18
67377;BME280;54261;46.086;6.588;2023-07-20T15:22:28;92135.09;;;29.94;19.43
67377;BME280;54261;46.086;6.588;2023-07-20T15:27:30;92165.88;;;30.28;18.74
67377;BME280;54261;46.086;6.588;2023-07-20T15:32:32;92147.47;;;31.07;18.27
67377;BME280;54261;46.086;6.588;2023-07-20T15:37:54;92137.28;;;31.04;18.31
67377;BME280;54261;46.086;6.588;2023-07-20T15:42:56;92153.75;;;30.57;19.22
67377;BME280;54261;46.086;6.588;2023-07-20T15:47:58;92149.03;;;31.73;18.15
67377;BME280;54261;46.086;6.588;2023-07-20T15:53:00;92158.91;;;31.65;17.46
67377;BME280;54261;46.086;6.588;2023-07-20T15:58:02;92098.47;;;30.44;18.33
67377;BME280;54261;46.086;6.588;2023-07-20T16:03:04;92120.56;;;31.73;17.85
67377;BME280;54261;46.086;6.588;2023-07-20T16:08:07;92116.38;;;31.12;17.62
67377;BME280;54261;46.086;6.588;2023-07-20T16:13:09;92136.38;;;30.98;17.81
67377;BME280;54261;46.086;6.588;2023-07-20T16:18:13;92147.69;;;30.90;18.00
67377;BME280;54261;46.086;6.588;2023-07-20T16:23:15;92117.25;;;29.64;18.48
67377;BME280;54261;46.086;6.588;2023-07-20T16:28:17;92137.63;;;29.79;18.94
67377;BME280;54261;46.086;6.588;2023-07-20T16:33:19;92112.28;;;30.03;19.20
67377;BME280;54261;46.086;6.588;2023-07-20T16:38:21;92138.53;;;29.54;20.31
67377;BME280;54261;46.086;6.588;2023-07-20T16:43:23;92138.81;;;31.05;18.67
67377;BME280;54261;46.086;6.588;2023-07-20T16:48:28;92125.22;;;28.65;19.98
67377;BME280;54261;46.086;6.588;2023-07-20T16:53:31;92147.16;;;29.08;20.25
67377;BME280;54261;46.086;6.588;2023-07-20T16:58:33;92138.22;;;28.91;21.54
67377;BME280;54261;46.086;6.588;2023-07-20T17:03:35;92138.91;;;29.30;21.36
67377;BME280;54261;46.086;6.588;2023-07-20T17:08:38;92112.31;;;28.62;21.70
67377;BME280;54261;46.086;6.588;2023-07-20T17:13:40;92097.34;;;29.11;21.43
67377;BME280;54261;46.086;6.588;2023-07-20T17:18:42;92134.31;;;29.94;21.21
67377;BME280;54261;46.086;6.588;2023-07-20T17:23:43;92105.13;;;28.52;22.00
67377;BME280;54261;46.086;6.588;2023-07-20T17:28:49;92123.00;;;28.08;22.76
67377;BME280;54261;46.086;6.588;2023-07-20T17:33:51;92138.50;;;27.59;23.17
67377;BME280;54261;46.086;6.588;2023-07-20T17:38:53;92149.19;;;27.57;23.21
67377;BME280;54261;46.086;6.588;2023-07-20T17:43:55;92145.28;;;28.40;22.88
67377;BME280;54261;46.086;6.588;2023-07-20T17:48:57;92155.56;;;26.22;24.98
67377;BME280;54261;46.086;6.588;2023-07-20T17:53:59;92069.50;;;26.74;24.04
67377;BME280;54261;46.086;6.588;2023-07-20T17:59:01;92125.03;;;26.53;24.26
67377;BME280;54261;46.086;6.588;2023-07-20T18:04:03;92151.66;;;27.22;23.21
67377;BME280;54261;46.086;6.588;2023-07-20T18:09:08;92131.56;;;26.22;24.22
67377;BME280;54261;46.086;6.588;2023-07-20T18:14:11;92160.63;;;26.03;24.60
67377;BME280;54261;46.086;6.588;2023-07-20T18:19:12;92145.78;;;25.16;26.00
67377;BME280;54261;46.086;6.588;2023-07-20T18:24:14;92167.41;;;24.86;26.24
67377;BME280;54261;46.086;6.588;2023-07-20T18:29:16;92167.97;;;25.25;25.94
67377;BME280;54261;46.086;6.588;2023-07-20T18:34:18;92158.59;;;25.67;25.64
67377;BME280;54261;46.086;6.588;2023-07-20T18:39:20;92136.56;;;25.50;25.44
67377;BME280;54261;46.086;6.588;2023-07-20T18:44:22;92172.03;;;26.58;24.61
67377;BME280;54261;46.086;6.588;2023-07-20T18:49:24;92160.81;;;26.32;24.27
67377;BME280;54261;46.086;6.588;2023-07-20T18:54:27;92179.63;;;26.87;24.36
67377;BME280;54261;46.086;6.588;2023-07-20T18:59:29;92172.63;;;25.92;24.89
67377;BME280;54261;46.086;6.588;2023-07-20T19:04:31;92184.13;;;26.44;24.59
67377;BME280;54261;46.086;6.588;2023-07-20T19:09:33;92187.13;;;25.29;25.61
67377;BME280;54261;46.086;6.588;2023-07-20T19:14:35;92191.50;;;25.02;25.95
67377;BME280;54261;46.086;6.588;2023-07-20T19:19:37;92200.66;;;25.63;25.19
67377;BME280;54261;46.086;6.588;2023-07-20T19:24:39;92201.31;;;25.24;25.72
67377;BME280;54261;46.086;6.588;2023-07-20T19:29:41;92208.66;;;24.55;26.41
67377;BME280;54261;46.086;6.588;2023-07-20T19:34:43;92199.47;;;24.93;25.71
67377;BME280;54261;46.086;6.588;2023-07-20T19:39:45;92182.13;;;23.86;27.02
67377;BME280;54261;46.086;6.588;2023-07-20T19:44:47;92219.25;;;24.22;26.78
67377;BME280;54261;46.086;6.588;2023-07-20T19:49:48;92195.97;;;24.06;26.76
67377;BME280;54261;46.086;6.588;2023-07-20T19:54:50;92208.75;;;24.75;26.36
67377;BME280;54261;46.086;6.588;2023-07-20T19:59:52;92227.00;;;24.58;26.60
67377;BME280;54261;46.086;6.588;2023-07-20T20:04:55;92203.81;;;24.63;26.23
67377;BME280;54261;46.086;6.588;2023-07-20T20:09:57;92229.53;;;24.73;26.19
67377;BME280;54261;46.086;6.588;2023-07-20T20:14:59;92240.81;;;24.78;26.53
67377;BME280;54261;46.086;6.588;2023-07-20T20:20:02;92218.13;;;24.78;26.29
67377;BME280;54261;46.086;6.588;2023-07-20T20:25:04;92238.34;;;25.15;26.00
67377;BME280;54261;46.086;6.588;2023-07-20T20:30:08;92230.84;;;25.40;25.92
67377;BME280;54261;46.086;6.588;2023-07-20T20:35:10;92241.13;;;25.59;26.37
67377;BME280;54261;46.086;6.588;2023-07-20T20:40:12;92248.53;;;25.62;25.78
67377;BME280;54261;46.086;6.588;2023-07-20T20:45:15;92240.84;;;25.54;25.97
67377;BME280;54261;46.086;6.588;2023-07-20T20:50:17;92244.16;;;25.41;26.20
67377;BME280;54261;46.086;6.588;2023-07-20T20:55:22;92228.72;;;25.27;26.05
67377;BME280;54261;46.086;6.588;2023-07-20T21:00:24;92251.28;;;25.39;26.58
67377;BME280;54261;46.086;6.588;2023-07-20T21:05:27;92253.34;;;25.07;26.40
67377;BME280;54261;46.086;6.588;2023-07-20T21:10:29;92253.00;;;25.05;26.53
67377;BME280;54261;46.086;6.588;2023-07-20T21:15:31;92258.38;;;24.85;27.31
67377;BME280;54261;46.086;6.588;2023-07-20T21:20:32;92259.16;;;24.58;28.20
67377;BME280;54261;46.086;6.588;2023-07-20T21:25:35;92262.94;;;24.36;28.61
67377;BME280;54261;46.086;6.588;2023-07-20T21:30:37;92251.06;;;24.12;27.91
67377;BME280;54261;46.086;6.588;2023-07-20T21:35:43;92255.38;;;24.13;27.51
67377;BME280;54261;46.086;6.588;2023-07-20T21:40:45;92262.28;;;24.25;27.99
67377;BME280;54261;46.086;6.588;2023-07-20T21:45:47;92263.84;;;24.26;27.93
67377;BME280;54261;46.086;6.588;2023-07-20T21:50:52;92280.06;;;24.13;28.67
67377;BME280;54261;46.086;6.588;2023-07-20T21:55:54;92261.56;;;23.86;28.87
67377;BME280;54261;46.086;6.588;2023-07-20T22:00:56;92270.53;;;23.87;28.34
67377;BME280;54261;46.086;6.588;2023-07-20T22:06:02;92274.63;;;23.67;28.96
67377;BME280;54261;46.086;6.588;2023-07-20T22:11:05;92273.88;;;23.67;28.97
67377;BME280;54261;46.086;6.588;2023-07-20T22:16:07;92241.59;;;23.44;29.47
67377;BME280;54261;46.086;6.588;2023-07-20T22:21:09;92262.72;;;23.47;28.94
67377;BME280;54261;46.086;6.588;2023-07-20T22:26:13;92275.28;;;23.41;29.69
67377;BME280;54261;46.086;6.588;2023-07-20T22:31:15;92276.59;;;23.21;29.92
67377;BME280;54261;46.086;6.588;2023-07-20T22:36:17;92271.53;;;23.16;30.07
67377;BME280;54261;46.086;6.588;2023-07-20T22:41:19;92271.19;;;23.10;29.60
67377;BME280;54261;46.086;6.588;2023-07-20T22:46:21;92260.84;;;22.83;30.33
67377;BME280;54261;46.086;6.588;2023-07-20T22:51:23;92271.75;;;22.91;30.18
67377;BME280;54261;46.086;6.588;2023-07-20T22:56:25;92244.97;;;22.60;30.15
67377;BME280;54261;46.086;6.588;2023-07-20T23:01:27;92234.88;;;22.46;30.52
67377;BME280;54261;46.086;6.588;2023-07-20T23:06:29;92250.44;;;22.60;30.26
67377;BME280;54261;46.086;6.588;2023-07-20T23:11:31;92253.09;;;22.75;30.00
67377;BME280;54261;46.086;6.588;2023-07-20T23:16:34;92222.78;;;22.47;30.32
67377;BME280;54261;46.086;6.588;2023-07-20T23:21:36;92242.69;;;22.48;30.49
67377;BME280;54261;46.086;6.588;2023-07-20T23:26:39;92205.81;;;22.14;30.43
67377;BME280;54261;46.086;6.588;2023-07-20T23:31:42;92234.28;;;22.17;30.80
67377;BME280;54261;46.086;6.588;2023-07-20T23:36:44;92219.03;;;22.19;30.94
67377;BME280;54261;46.086;6.588;2023-07-20T23:41:46;92213.28;;;21.95;30.91
67377;BME280;54261;46.086;6.588;2023-07-20T23:46:48;92213.63;;;22.01;31.31
67377;BME280;54261;46.086;6.588;2023-07-20T23:51:50;92128.84;;;21.48;31.16
67377;BME280;54261;46.086;6.588;2023-07-20T23:56:52;92192.94;;;22.00;31.57
